sensor_id;sensor_type;location;lat;lon;timestamp;pressure;altitude;pressure_sealevel;temperature;humidity
68329;BME280;55182;56.864;60.554;2022-09-02T00:03:42;97978.03;;;15.05;100.00
68329;BME280;55182;56.864;60.554;2022-09-02T00:06:08;97973.59;;;15.07;100.00
68329;BME280;55182;56.864;60.554;2022-09-02T00:08:33;97970.09;;;15.07;100.00
68329;BME280;55182;56.864;60.554;2022-09-02T00:10:59;97966.56;;;15.06;100.00
68329;BME280;55182;56.864;60.554;2022-09-02T00:13:25;97964.84;;;15.05;100.00
68329;BME280;55182;56.864;60.554;2022-09-02T00:15:51;97963.97;;;15.05;100.00
68329;BME280;55182;56.864;60.554;2022-09-02T00:18:16;97964.84;;;15.05;100.00
68329;BME280;55182;56.864;60.554;2022-09-02T00:20:42;97960.47;;;15.03;100.00
68329;BME280;55182;56.864;60.554;2022-09-02T00:23:08;97960.47;;;15.03;100.00
68329;BME280;55182;56.864;60.554;2022-09-02T00:25:34;97965.78;;;15.01;100.00
68329;BME280;55182;56.864;60.554;2022-09-02T00:28:00;97960.47;;;15.03;100.00
68329;BME280;55182;56.864;60.554;2022-09-02T00:30:26;97955.28;;;15.00;100.00
68329;BME280;55182;56.864;60.554;2022-09-02T00:32:52;97953.47;;;15.02;100.00
68329;BME280;55182;56.864;60.554;2022-09-02T00:35:17;97951.69;;;15.04;100.00
68329;BME280;55182;56.864;60.554;2022-09-02T00:37:44;97949.00;;;15.05;100.00
68329;BME280;55182;56.864;60.554;2022-09-02T00:40:10;97944.53;;;15.09;100.00
68329;BME280;55182;56.864;60.554;2022-09-02T00:42:35;97941.84;;;15.10;100.00
68329;BME280;55182;56.864;60.554;2022-09-02T00:45:01;97942.66;;;15.14;100.00
68329;BME280;55182;56.864;60.554;2022-09-02T00:47:27;97939.13;;;15.15;100.00
68329;BME280;55182;56.864;60.554;2022-09-02T00:49:53;97940.81;;;15.18;100.00
68329;BME280;55182;56.864;60.554;2022-09-02T00:52:23;97949.63;;;15.18;100.00
68329;BME280;55182;56.864;60.554;2022-09-02T00:54:51;97945.28;;;15.16;100.00
68329;BME280;55182;56.864;60.554;2022-09-02T00:57:18;97950.56;;;15.14;100.00
68329;BME280;55182;56.864;60.554;2022-09-02T00:59:47;97950.69;;;15.08;100.00
68329;BME280;55182;56.864;60.554;2022-09-02T01:02:15;97949.03;;;15.02;100.00
68329;BME280;55182;56.864;60.554;2022-09-02T01:04:41;97949.16;;;14.96;100.00
68329;BME280;55182;56.864;60.554;2022-09-02T01:07:06;97954.53;;;14.93;100.00
68329;BME280;55182;56.864;60.554;2022-09-02T01:09:32;97953.66;;;14.91;100.00
68329;BME280;55182;56.864;60.554;2022-09-02T01:11:57;97951.88;;;14.92;100.00
68329;BME280;55182;56.864;60.554;2022-09-02T01:14:23;97945.72;;;14.93;100.00
68329;BME280;55182;56.864;60.554;2022-09-02T01:16:50;97950.09;;;14.94;100.00
68329;BME280;55182;56.864;60.554;2022-09-02T01:19:19;97950.16;;;14.91;100.00
68329;BME280;55182;56.864;60.554;2022-09-02T01:21:46;97944.09;;;14.85;100.00
68329;BME280;55182;56.864;60.554;2022-09-02T01:24:12;97942.38;;;14.83;100.00
68329;BME280;55182;56.864;60.554;2022-09-02T01:26:37;97939.78;;;14.81;100.00
68329;BME280;55182;56.864;60.554;2022-09-02T01:29:03;97935.50;;;14.76;100.00
68329;BME280;55182;56.864;60.554;2022-09-02T01:31:28;97941.69;;;14.73;100.00
68329;BME280;55182;56.864;60.554;2022-09-02T01:33:53;97938.25;;;14.70;100.00
68329;BME280;55182;56.864;60.554;2022-09-02T01:36:19;97940.97;;;14.65;100.00
68329;BME280;55182;56.864;60.554;2022-09-02T01:38:45;97936.63;;;14.61;100.00
68329;BME280;55182;56.864;60.554;2022-09-02T01:41:10;97942.00;;;14.56;100.00
68329;BME280;55182;56.864;60.554;2022-09-02T01:43:36;97942.94;;;14.54;100.00
68329;BME280;55182;56.864;60.554;2022-09-02T01:46:01;97943.84;;;14.53;100.00
68329;BME280;55182;56.864;60.554;2022-09-02T01:48:29;97948.25;;;14.51;100.00
68329;BME280;55182;56.864;60.554;2022-09-02T01:50:56;97942.97;;;14.51;100.00
68329;BME280;55182;56.864;60.554;2022-09-02T01:53:22;97944.75;;;14.50;100.00
68329;BME280;55182;56.864;60.554;2022-09-02T01:55:48;97944.75;;;14.50;100.00
68329;BME280;55182;56.864;60.554;2022-09-02T01:58:13;97941.25;;;14.48;100.00
68329;BME280;55182;56.864;60.554;2022-09-02T02:00:39;97932.44;;;14.49;100.00
68329;BME280;55182;56.864;60.554;2022-09-02T02:03:05;97938.59;;;14.50;100.00
68329;BME280;55182;56.864;60.554;2022-09-02T02:05:31;97933.28;;;14.53;100.00
68329;BME280;55182;56.864;60.554;2022-09-02T02:07:57;97934.09;;;14.55;100.00
68329;BME280;55182;56.864;60.554;2022-09-02T02:10:22;97929.66;;;14.57;100.00
68329;BME280;55182;56.864;60.554;2022-09-02T02:12:48;97926.09;;;14.61;100.00
68329;BME280;55182;56.864;60.554;2022-09-02T02:15:16;97930.41;;;14.65;100.00
68329;BME280;55182;56.864;60.554;2022-09-02T02:17:42;97938.25;;;14.70;100.00
68329;BME280;55182;56.864;60.554;2022-09-02T02:20:08;97943.41;;;14.74;100.00
68329;BME280;55182;56.864;60.554;2022-09-02T02:22:34;97936.38;;;14.76;100.00
68329;BME280;55182;56.864;60.554;2022-09-02T02:25:00;97948.66;;;14.77;100.00
68329;BME280;55182;56.864;60.554;2022-09-02T02:27:28;97947.78;;;14.77;100.00
68329;BME280;55182;56.864;60.554;2022-09-02T02:29:53;97946.84;;;14.79;100.00
68329;BME280;55182;56.864;60.554;2022-09-02T02:32:20;97949.41;;;14.84;100.00
68329;BME280;55182;56.864;60.554;2022-09-02T02:34:46;97968.75;;;14.84;100.00
68329;BME280;55182;56.864;60.554;2022-09-02T02:37:12;97974.88;;;14.87;100.00
68329;BME280;55182;56.864;60.554;2022-09-02T02:39:38;97989.78;;;14.89;100.00
68329;BME280;55182;56.864;60.554;2022-09-02T02:42:05;98003.81;;;14.91;100.00
68329;BME280;55182;56.864;60.554;2022-09-02T02:44:30;97979.97;;;14.96;100.00
68329;BME280;55182;56.864;60.554;2022-09-02T02:46:56;97950.91;;;14.97;100.00
68329;BME280;55182;56.864;60.554;2022-09-02T02:49:21;97940.28;;;15.00;100.00
68329;BME280;55182;56.864;60.554;2022-09-02T02:51:47;97932.34;;;15.02;100.00
68329;BME280;55182;56.864;60.554;2022-09-02T02:54:12;97934.94;;;15.05;100.00
68329;BME280;55182;56.864;60.554;2022-09-02T02:56:38;97926.06;;;15.07;100.00
68329;BME280;55182;56.864;60.554;2022-09-02T02:59:04;97904.94;;;15.07;100.00
68329;BME280;55182;56.864;60.554;2022-09-02T03:01:32;97903.16;;;15.08;100.00
68329;BME280;55182;56.864;60.554;2022-09-02T03:03:57;97885.56;;;15.08;100.00
68329;BME280;55182;56.864;60.554;2022-09-02T03:06:23;97875.81;;;15.12;100.00
68329;BME280;55182;56.864;60.554;2022-09-02T03:08:49;97853.78;;;15.13;100.00
68329;BME280;55182;56.864;60.554;2022-09-02T03:11:15;97846.72;;;15.14;100.00
68329;BME280;55182;56.864;60.554;2022-09-02T03:13:41;97844.94;;;15.14;100.00
68329;BME280;55182;56.864;60.554;2022-09-02T03:16:06;97844.06;;;15.15;100.00
68329;BME280;55182;56.864;60.554;2022-09-02T03:18:32;97833.44;;;15.18;100.00
68329;BME280;55182;56.864;60.554;2022-09-02T03:20:59;97837.75;;;15.22;100.00
68329;BME280;55182;56.864;60.554;2022-09-02T03:23:25;97837.66;;;15.27;100.00
68329;BME280;55182;56.864;60.554;2022-09-02T03:25:50;97824.31;;;15.31;100.00
68329;BME280;55182;56.864;60.554;2022-09-02T03:28:27;97821.56;;;15.36;100.00
68329;BME280;55182;56.864;60.554;2022-09-02T03:30:53;97827.66;;;15.40;100.00
68329;BME280;55182;56.864;60.554;2022-09-02T03:33:19;97828.44;;;15.45;100.00
68329;BME280;55182;56.864;60.554;2022-09-02T03:35:45;97834.50;;;15.50;100.00
68329;BME280;55182;56.864;60.554;2022-09-02T03:38:11;97833.44;;;15.57;100.00
68329;BME280;55182;56.864;60.554;2022-09-02T03:40:37;97830.72;;;15.60;100.00
68329;BME280;55182;56.864;60.554;2022-09-02T03:43:02;97825.38;;;15.63;100.00
68329;BME280;55182;56.864;60.554;2022-09-02T03:45:29;97835.91;;;15.66;100.00
68329;BME280;55182;56.864;60.554;2022-09-02T03:47:55;97844.56;;;15.71;100.00
68329;BME280;55182;56.864;60.554;2022-09-02T03:50:35;97831.34;;;15.73;100.00
68329;BME280;55182;56.864;60.554;2022-09-02T03:53:02;97832.97;;;15.78;100.00
68329;BME280;55182;56.864;60.554;2022-09-02T03:55:28;97833.72;;;15.83;100.00
68329;BME280;55182;56.864;60.554;2022-09-02T03:57:54;97835.34;;;15.87;100.00
68329;BME280;55182;56.864;60.554;2022-09-02T04:00:23;97834.34;;;15.93;100.00
68329;BME280;55182;56.864;60.554;2022-09-02T04:02:53;97835.97;;;15.99;100.00
68329;BME280;55182;56.864;60.554;2022-09-02T04:05:18;97827.16;;;16.00;100.00
68329;BME280;55182;56.864;60.554;2022-09-02T04:07:44;97812.03;;;16.03;100.00
68329;BME280;55182;56.864;60.554;2022-09-02T04:10:11;97814.63;;;16.06;100.00
68329;BME280;55182;56.864;60.554;2022-09-02T04:12:37;97816.25;;;16.10;100.00
68329;BME280;55182;56.864;60.554;2022-09-02T04:15:04;97815.22;;;16.16;100.00
68329;BME280;55182;56.864;60.554;2022-09-02T04:17:29;97808.91;;;16.22;100.00
68329;BME280;55182;56.864;60.554;2022-09-02T04:19:55;97807.88;;;16.29;100.00
68329;BME280;55182;56.864;60.554;2022-09-02T04:22:21;97795.41;;;16.32;100.00
68329;BME280;55182;56.864;60.554;2022-09-02T04:24:47;97803.28;;;16.35;100.00
68329;BME280;55182;56.864;60.554;2022-09-02T04:27:12;97791.84;;;16.33;100.00
68329;BME280;55182;56.864;60.554;2022-09-02T04:29:38;97796.19;;;16.36;100.00
68329;BME280;55182;56.864;60.554;2022-09-02T04:32:03;97785.66;;;16.34;100.00
68329;BME280;55182;56.864;60.554;2022-09-02T04:34:29;97775.97;;;16.33;100.00
68329;BME280;55182;56.864;60.554;2022-09-02T04:36:55;97768.94;;;16.32;100.00
68329;BME280;55182;56.864;60.554;2022-09-02T04:39:20;97768.09;;;16.32;100.00
68329;BME280;55182;56.864;60.554;2022-09-02T04:41:47;97758.47;;;16.29;100.00
68329;BME280;55182;56.864;60.554;2022-09-02T04:44:13;97754.91;;;16.30;100.00
68329;BME280;55182;56.864;60.554;2022-09-02T04:46:42;97748.63;;;16.34;100.00
68329;BME280;55182;56.864;60.554;2022-09-02T04:49:12;97749.38;;;16.39;100.00
68329;BME280;55182;56.864;60.554;2022-09-02T04:51:39;97743.06;;;16.43;100.00
68329;BME280;55182;56.864;60.554;2022-09-02T04:54:07;97744.66;;;16.49;100.00
68329;BME280;55182;56.864;60.554;2022-09-02T04:56:33;97741.81;;;16.57;100.00
68329;BME280;55182;56.864;60.554;2022-09-02T04:59:01;97735.50;;;16.61;100.00
68329;BME280;55182;56.864;60.554;2022-09-02T05:01:29;97737.97;;;16.67;100.00
68329;BME280;55182;56.864;60.554;2022-09-02T05:03:58;97746.69;;;16.72;100.00
68329;BME280;55182;56.864;60.554;2022-09-02T05:06:27;97731.53;;;16.77;100.00
68329;BME280;55182;56.864;60.554;2022-09-02T05:08:56;97740.25;;;16.81;100.00
68329;BME280;55182;56.864;60.554;2022-09-02T05:11:25;97734.84;;;16.84;100.00
68329;BME280;55182;56.864;60.554;2022-09-02T05:13:53;97715.44;;;16.83;100.00
68329;BME280;55182;56.864;60.554;2022-09-02T05:16:22;97710.16;;;16.83;100.00
68329;BME280;55182;56.864;60.554;2022-09-02T05:18:48;97711.00;;;16.85;100.00
68329;BME280;55182;56.864;60.554;2022-09-02T05:21:14;97711.00;;;16.85;100.00
68329;BME280;55182;56.864;60.554;2022-09-02T05:23:40;97702.13;;;16.86;100.00
68329;BME280;55182;56.864;60.554;2022-09-02T05:26:06;97698.50;;;16.90;100.00
68329;BME280;55182;56.864;60.554;2022-09-02T05:28:32;97703.59;;;16.97;100.00
68329;BME280;55182;56.864;60.554;2022-09-02T05:31:01;97701.69;;;17.00;100.00
68329;BME280;55182;56.864;60.554;2022-09-02T05:33:27;97698.19;;;17.00;100.00
68329;BME280;55182;56.864;60.554;2022-09-02T05:35:52;97677.81;;;17.02;100.00
68329;BME280;55182;56.864;60.554;2022-09-02T05:38:18;97693.63;;;17.05;100.00
68329;BME280;55182;56.864;60.554;2022-09-02T05:40:45;97695.97;;;17.14;100.00
68329;BME280;55182;56.864;60.554;2022-09-02T05:43:11;97706.25;;;17.23;100.00
68329;BME280;55182;56.864;60.554;2022-09-02T05:45:37;97707.69;;;17.33;100.00
68329;BME280;55182;56.864;60.554;2022-09-02T05:48:02;97707.50;;;17.39;100.00
68329;BME280;55182;56.864;60.554;2022-09-02T05:50:28;97701.13;;;17.45;100.00
68329;BME280;55182;56.864;60.554;2022-09-02T05:52:55;97706.22;;;17.51;100.00
68329;BME280;55182;56.864;60.554;2022-09-02T05:55:21;97698.13;;;17.56;100.00
68329;BME280;55182;56.864;60.554;2022-09-02T05:57:48;97699.75;;;17.60;100.00
68329;BME280;55182;56.864;60.554;2022-09-02T06:00:13;97695.19;;;17.63;100.00
68329;BME280;55182;56.864;60.554;2022-09-02T06:02:39;97699.44;;;17.69;100.00
68329;BME280;55182;56.864;60.554;2022-09-02T06:05:05;97690.53;;;17.71;100.00
68329;BME280;55182;56.864;60.554;2022-09-02T06:07:31;97690.28;;;17.79;100.00
68329;BME280;55182;56.864;60.554;2022-09-02T06:09:56;97678.59;;;17.85;100.00
68329;BME280;55182;56.864;60.554;2022-09-02T06:12:24;97671.25;;;17.93;100.00
68329;BME280;55182;56.864;60.554;2022-09-02T06:14:50;97663.00;;;18.00;100.00
68329;BME280;55182;56.864;60.554;2022-09-02T06:17:18;97658.13;;;18.13;100.00
68329;BME280;55182;56.864;60.554;2022-09-02T06:19:48;97661.16;;;18.26;100.00
68329;BME280;55182;56.864;60.554;2022-09-02T06:22:14;97651.84;;;18.39;100.00
68329;BME280;55182;56.864;60.554;2022-09-02T06:24:41;97638.34;;;18.45;100.00
68329;BME280;55182;56.864;60.554;2022-09-02T06:27:11;97638.22;;;18.48;100.00
68329;BME280;55182;56.864;60.554;2022-09-02T06:29:42;97627.59;;;18.48;100.00
68329;BME280;55182;56.864;60.554;2022-09-02T06:32:08;97619.59;;;18.50;100.00
68329;BME280;55182;56.864;60.554;2022-09-02T06:34:34;97621.19;;;18.54;100.00
68329;BME280;55182;56.864;60.554;2022-09-02T06:36:59;97623.56;;;18.62;100.00
68329;BME280;55182;56.864;60.554;2022-09-02T06:39:25;97625.81;;;18.72;100.00
68329;BME280;55182;56.864;60.554;2022-09-02T06:41:53;97622.59;;;18.86;100.00
68329;BME280;55182;56.864;60.554;2022-09-02T06:44:20;97618.53;;;18.99;100.00
68329;BME280;55182;56.864;60.554;2022-09-02T06:46:57;97606.66;;;19.08;100.00
68329;BME280;55182;56.864;60.554;2022-09-02T06:49:23;97605.41;;;19.17;100.00
68329;BME280;55182;56.864;60.554;2022-09-02T06:51:50;97598.00;;;19.25;99.89
68329;BME280;55182;56.864;60.554;2022-09-02T06:54:18;97592.22;;;19.36;99.40
68329;BME280;55182;56.864;60.554;2022-09-02T06:56:46;97590.00;;;19.45;98.84
68329;BME280;55182;56.864;60.554;2022-09-02T06:59:12;97583.34;;;19.57;99.08
68329;BME280;55182;56.864;60.554;2022-09-02T07:01:42;97571.25;;;19.70;96.05
68329;BME280;55182;56.864;60.554;2022-09-02T07:04:08;97567.03;;;19.85;95.22
68329;BME280;55182;56.864;60.554;2022-09-02T07:06:35;97553.75;;;20.04;93.51
68329;BME280;55182;56.864;60.554;2022-09-02T07:09:01;97557.44;;;20.20;93.90
68329;BME280;55182;56.864;60.554;2022-09-02T07:11:27;97551.16;;;20.40;92.23
68329;BME280;55182;56.864;60.554;2022-09-02T07:13:54;97540.69;;;20.56;90.20
68329;BME280;55182;56.864;60.554;2022-09-02T07:16:20;97538.19;;;20.70;89.99
68329;BME280;55182;56.864;60.554;2022-09-02T07:18:45;97532.22;;;20.84;88.29
68329;BME280;55182;56.864;60.554;2022-09-02T07:21:12;97520.06;;;20.96;87.36
68329;BME280;55182;56.864;60.554;2022-09-02T07:23:39;97523.06;;;21.07;86.28
68329;BME280;55182;56.864;60.554;2022-09-02T07:26:10;97518.81;;;21.20;85.47
68329;BME280;55182;56.864;60.554;2022-09-02T07:28:36;97508.13;;;21.39;85.08
68329;BME280;55182;56.864;60.554;2022-09-02T07:31:01;97499.13;;;21.57;83.21
68329;BME280;55182;56.864;60.554;2022-09-02T07:33:28;97506.16;;;21.76;82.21
68329;BME280;55182;56.864;60.554;2022-09-02T07:35:54;97506.00;;;21.94;81.61
68329;BME280;55182;56.864;60.554;2022-09-02T07:38:20;97499.78;;;22.11;80.84
68329;BME280;55182;56.864;60.554;2022-09-02T07:40:47;97493.59;;;22.27;79.55
68329;BME280;55182;56.864;60.554;2022-09-02T07:43:14;97492.66;;;22.43;79.15
68329;BME280;55182;56.864;60.554;2022-09-02T07:45:40;97482.97;;;22.57;78.55
68329;BME280;55182;56.864;60.554;2022-09-02T07:48:06;97479.03;;;22.64;77.90
68329;BME280;55182;56.864;60.554;2022-09-02T07:50:34;97463.97;;;22.77;75.33
68329;BME280;55182;56.864;60.554;2022-09-02T07:53:01;97472.16;;;22.90;75.23
68329;BME280;55182;56.864;60.554;2022-09-02T07:55:29;97475.06;;;23.01;73.43
68329;BME280;55182;56.864;60.554;2022-09-02T07:57:54;97480.47;;;23.15;72.91
68329;BME280;55182;56.864;60.554;2022-09-02T08:00:20;97479.72;;;23.27;72.49
68329;BME280;55182;56.864;60.554;2022-09-02T08:02:48;97491.41;;;23.41;70.77
68329;BME280;55182;56.864;60.554;2022-09-02T08:05:20;97496.00;;;23.53;70.91
68329;BME280;55182;56.864;60.554;2022-09-02T08:07:45;97486.31;;;23.66;71.06
68329;BME280;55182;56.864;60.554;2022-09-02T08:10:11;97468.88;;;23.88;69.28
68329;BME280;55182;56.864;60.554;2022-09-02T08:12:37;97463.25;;;24.06;67.80
68329;BME280;55182;56.864;60.554;2022-09-02T08:15:03;97460.81;;;24.16;66.86
68329;BME280;55182;56.864;60.554;2022-09-02T08:17:28;97463.41;;;24.18;66.62
68329;BME280;55182;56.864;60.554;2022-09-02T08:19:54;97461.50;;;24.20;66.15
68329;BME280;55182;56.864;60.554;2022-09-02T08:22:19;97452.94;;;24.27;66.14
68329;BME280;55182;56.864;60.554;2022-09-02T08:24:44;97451.59;;;24.49;65.12
68329;BME280;55182;56.864;60.554;2022-09-02T08:27:10;97442.31;;;24.67;65.15
68329;BME280;55182;56.864;60.554;2022-09-02T08:29:35;97444.53;;;24.88;63.46
68329;BME280;55182;56.864;60.554;2022-09-02T08:32:01;97439.66;;;25.07;61.58
68329;BME280;55182;56.864;60.554;2022-09-02T08:34:26;97432.81;;;25.28;60.60
68329;BME280;55182;56.864;60.554;2022-09-02T08:36:52;97435.19;;;25.46;60.58
68329;BME280;55182;56.864;60.554;2022-09-02T08:39:17;97430.03;;;25.68;57.23
68329;BME280;55182;56.864;60.554;2022-09-02T08:44:19;97418.97;;;25.98;56.97
68329;BME280;55182;56.864;60.554;2022-09-02T08:46:45;97419.91;;;26.10;55.94
68329;BME280;55182;56.864;60.554;2022-09-02T08:49:15;97421.69;;;26.22;55.76
68329;BME280;55182;56.864;60.554;2022-09-02T08:51:47;97413.16;;;26.28;52.63
68329;BME280;55182;56.864;60.554;2022-09-02T08:54:21;97414.28;;;26.37;52.83
68329;BME280;55182;56.864;60.554;2022-09-02T08:56:50;97410.13;;;26.46;52.59
68329;BME280;55182;56.864;60.554;2022-09-02T08:59:17;97399.28;;;26.58;51.84
68329;BME280;55182;56.864;60.554;2022-09-02T09:21:51;97426.94;;;27.19;51.50
68329;BME280;55182;56.864;60.554;2022-09-02T09:26:46;97415.56;;;27.27;49.69
68329;BME280;55182;56.864;60.554;2022-09-02T09:29:11;97406.63;;;27.27;49.69
68329;BME280;55182;56.864;60.554;2022-09-02T09:31:37;97401.97;;;27.17;49.88
68329;BME280;55182;56.864;60.554;2022-09-02T09:34:05;97394.94;;;27.04;49.70
68329;BME280;55182;56.864;60.554;2022-09-02T09:41:51;97483.16;;;26.63;50.41
68329;BME280;55182;56.864;60.554;2022-09-02T09:47:01;97515.63;;;24.39;62.56
68329;BME280;55182;56.864;60.554;2022-09-02T09:49:26;97524.44;;;22.48;68.18
68329;BME280;55182;56.864;60.554;2022-09-02T09:51:53;97528.03;;;21.82;70.46
68329;BME280;55182;56.864;60.554;2022-09-02T09:54:18;97507.72;;;21.80;72.57
68329;BME280;55182;56.864;60.554;2022-09-02T09:56:44;97475.19;;;21.89;64.74
68329;BME280;55182;56.864;60.554;2022-09-02T10:01:52;97460.94;;;22.21;66.09
68329;BME280;55182;56.864;60.554;2022-09-02T10:04:51;97466.19;;;22.39;66.55
68329;BME280;55182;56.864;60.554;2022-09-02T10:07:10;97468.84;;;22.55;63.17
68329;BME280;55182;56.864;60.554;2022-09-02T10:09:36;97468.56;;;22.75;58.27
68329;BME280;55182;56.864;60.554;2022-09-02T10:12:08;97467.41;;;22.95;65.72
68329;BME280;55182;56.864;60.554;2022-09-02T10:27:46;97474.59;;;23.39;68.39
68329;BME280;55182;56.864;60.554;2022-09-02T10:30:17;97477.44;;;23.36;74.09
68329;BME280;55182;56.864;60.554;2022-09-02T10:35:19;97469.69;;;23.31;76.48
68329;BME280;55182;56.864;60.554;2022-09-02T10:38:32;97465.88;;;23.35;79.83
68329;BME280;55182;56.864;60.554;2022-09-02T10:40:36;97457.69;;;23.52;57.87
68329;BME280;55182;56.864;60.554;2022-09-02T10:43:05;97468.34;;;23.83;56.95
68329;BME280;55182;56.864;60.554;2022-09-02T10:45:35;97466.00;;;24.05;55.94
68329;BME280;55182;56.864;60.554;2022-09-02T10:48:05;97479.38;;;24.19;55.91
68329;BME280;55182;56.864;60.554;2022-09-02T10:50:36;97477.06;;;24.27;56.37
68329;BME280;55182;56.864;60.554;2022-09-02T10:55:46;97507.00;;;24.34;56.21
68329;BME280;55182;56.864;60.554;2022-09-02T10:58:17;97499.91;;;24.33;54.89
68329;BME280;55182;56.864;60.554;2022-09-02T11:00:46;97499.91;;;24.33;56.32
68329;BME280;55182;56.864;60.554;2022-09-02T11:08:08;97524.31;;;24.43;52.65
68329;BME280;55182;56.864;60.554;2022-09-02T11:10:36;97534.34;;;24.53;51.71
68329;BME280;55182;56.864;60.554;2022-09-02T11:13:12;97542.22;;;24.56;50.40
68329;BME280;55182;56.864;60.554;2022-09-02T11:15:44;97552.03;;;24.56;50.77
68329;BME280;55182;56.864;60.554;2022-09-02T11:18:17;97560.41;;;24.51;49.11
68329;BME280;55182;56.864;60.554;2022-09-02T11:25:59;97583.25;;;24.28;51.03
68329;BME280;55182;56.864;60.554;2022-09-02T11:33:57;97605.13;;;23.92;53.01
68329;BME280;55182;56.864;60.554;2022-09-02T11:36:15;97606.63;;;23.82;53.03
68329;BME280;55182;56.864;60.554;2022-09-02T11:38:43;97574.25;;;23.72;53.46
68329;BME280;55182;56.864;60.554;2022-09-02T11:48:38;97591.69;;;22.88;56.58
68329;BME280;55182;56.864;60.554;2022-09-02T11:53:53;97604.69;;;23.10;57.63
68329;BME280;55182;56.864;60.554;2022-09-02T11:56:21;97612.59;;;23.11;58.13
68329;BME280;55182;56.864;60.554;2022-09-02T11:58:50;97620.63;;;23.11;58.67
68329;BME280;55182;56.864;60.554;2022-09-02T12:01:28;97628.25;;;23.03;59.33
68329;BME280;55182;56.864;60.554;2022-09-02T12:03:59;97635.06;;;22.93;60.52
68329;BME280;55182;56.864;60.554;2022-09-02T12:06:25;97632.38;;;22.93;61.44
68329;BME280;55182;56.864;60.554;2022-09-02T12:11:33;97629.34;;;23.15;61.62
68329;BME280;55182;56.864;60.554;2022-09-02T12:13:59;97629.59;;;23.56;59.98
68329;BME280;55182;56.864;60.554;2022-09-02T12:21:19;97645.38;;;23.61;59.90
68329;BME280;55182;56.864;60.554;2022-09-02T12:26:13;97637.41;;;24.76;55.72
68329;BME280;55182;56.864;60.554;2022-09-02T12:28:40;97635.97;;;25.66;53.13
68329;BME280;55182;56.864;60.554;2022-09-02T12:31:11;97636.41;;;26.51;50.76
68329;BME280;55182;56.864;60.554;2022-09-02T12:33:40;97636.88;;;27.31;48.45
68329;BME280;55182;56.864;60.554;2022-09-02T12:36:07;97633.31;;;27.78;45.91
68329;BME280;55182;56.864;60.554;2022-09-02T12:46:12;97640.28;;;28.27;45.58
68329;BME280;55182;56.864;60.554;2022-09-02T12:48:43;97639.59;;;28.59;43.94
68329;BME280;55182;56.864;60.554;2022-09-02T12:51:12;97630.78;;;28.68;44.54
68329;BME280;55182;56.864;60.554;2022-09-02T12:53:57;97635.94;;;28.82;44.21
68329;BME280;55182;56.864;60.554;2022-09-02T12:56:23;97636.88;;;28.92;43.99
68329;BME280;55182;56.864;60.554;2022-09-02T12:58:54;97640.56;;;28.69;43.95
68329;BME280;55182;56.864;60.554;2022-09-02T13:04:01;97650.53;;;27.99;45.59
68329;BME280;55182;56.864;60.554;2022-09-02T13:19:26;97665.31;;;26.73;51.07
68329;BME280;55182;56.864;60.554;2022-09-02T13:21:47;97667.06;;;26.61;50.77
68329;BME280;55182;56.864;60.554;2022-09-02T13:32:14;97673.09;;;25.86;53.46
68329;BME280;55182;56.864;60.554;2022-09-02T13:34:45;97676.69;;;26.25;52.86
68329;BME280;55182;56.864;60.554;2022-09-02T13:39:55;97672.09;;;26.78;50.60
68329;BME280;55182;56.864;60.554;2022-09-02T13:42:25;97681.66;;;26.69;50.74
68329;BME280;55182;56.864;60.554;2022-09-02T13:45:11;97673.94;;;26.27;52.04
68329;BME280;55182;56.864;60.554;2022-09-02T13:47:39;97674.88;;;25.73;54.04
68329;BME280;55182;56.864;60.554;2022-09-02T13:50:05;97666.75;;;25.21;55.65
68329;BME280;55182;56.864;60.554;2022-09-02T13:52:31;97678.56;;;24.75;56.99
68329;BME280;55182;56.864;60.554;2022-09-02T13:54:57;97681.81;;;24.38;58.42
68329;BME280;55182;56.864;60.554;2022-09-02T13:57:24;97674.84;;;24.05;58.93
68329;BME280;55182;56.864;60.554;2022-09-02T13:59:51;97677.75;;;23.72;60.38
68329;BME280;55182;56.864;60.554;2022-09-02T14:02:33;97679.84;;;23.51;60.29
68329;BME280;55182;56.864;60.554;2022-09-02T14:05:03;97689.69;;;23.35;60.69
68329;BME280;55182;56.864;60.554;2022-09-02T14:07:34;97677.78;;;23.24;61.77
68329;BME280;55182;56.864;60.554;2022-09-02T14:10:02;97683.69;;;23.15;61.44
68329;BME280;55182;56.864;60.554;2022-09-02T14:12:28;97682.63;;;23.02;61.70
68329;BME280;55182;56.864;60.554;2022-09-02T14:14:56;97683.47;;;22.87;62.58
68329;BME280;55182;56.864;60.554;2022-09-02T14:17:22;97684.94;;;22.77;63.13
68329;BME280;55182;56.864;60.554;2022-09-02T14:19:48;97695.34;;;22.65;63.70
68329;BME280;55182;56.864;60.554;2022-09-02T14:22:30;97688.75;;;22.55;64.29
68329;BME280;55182;56.864;60.554;2022-09-02T14:24:55;97683.91;;;22.46;64.90
68329;BME280;55182;56.864;60.554;2022-09-02T14:27:21;97695.25;;;22.34;65.29
68329;BME280;55182;56.864;60.554;2022-09-02T14:29:48;97693.22;;;22.21;65.79
68329;BME280;55182;56.864;60.554;2022-09-02T14:32:20;97699.75;;;22.16;66.49
68329;BME280;55182;56.864;60.554;2022-09-02T14:34:46;97696.59;;;22.08;66.52
68329;BME280;55182;56.864;60.554;2022-09-02T14:39:50;97703.44;;;21.96;67.02
68329;BME280;55182;56.864;60.554;2022-09-02T14:42:16;97716.94;;;21.93;67.24
68329;BME280;55182;56.864;60.554;2022-09-02T14:44:41;97703.81;;;21.88;67.47
68329;BME280;55182;56.864;60.554;2022-09-02T14:47:14;97711.19;;;21.83;67.77
68329;BME280;55182;56.864;60.554;2022-09-02T14:49:48;97718.72;;;21.75;68.60
68329;BME280;55182;56.864;60.554;2022-09-02T14:54:48;97733.06;;;21.55;69.52
68329;BME280;55182;56.864;60.554;2022-09-02T14:57:24;97730.69;;;21.49;69.86